Time;durP1;ratioP1;P1;durP2;ratioP2;P2;SDS_P1;SDS_P2;PMS_P1;PMS_P2;Temp;Humidity;BMP_temperature;BMP_pressure;BME280_temperature;BME280_humidity;BME280_pressure;Samples;Min_cycle;Max_cycle;Signal;HPM_P1;HPM_P2
2022/01/23 00:00:19;;;;;;;1.67;1.17;;;21.90;44.90;;;;;;5072202;28;20088;-60
2022/01/23 00:02:45;;;;;;;;;;;21.90;44.90;;;;;;5068847;28;20075;-60
2022/01/23 00:05:11;;;;;;;3.78;1.05;;;21.90;44.80;;;;;;5069473;28;19928;-60
2022/01/23 00:07:39;;;;;;;1.80;1.08;;;21.80;45.00;;;;;;5067750;28;20049;-61
2022/01/23 00:10:06;;;;;;;1.20;1.05;;;21.80;45.00;;;;;;5066761;28;20154;-60
2022/01/23 00:12:38;;;;;;;2.15;1.00;;;21.80;44.90;;;;;;5064647;28;34082;-61
2022/01/23 00:17:48;;;;;;;1.10;1.00;;;21.70;44.80;;;;;;5070408;28;20056;-60
2022/01/23 00:20:14;;;;;;;2.40;0.98;;;21.70;44.90;;;;;;5072045;28;20044;-60
2022/01/23 00:22:44;;;;;;;2.10;1.17;;;21.70;44.90;;;;;;5066891;28;20083;-60
2022/01/23 00:30:42;;;;;;;3.30;1.27;;;21.60;44.90;;;;;;5072110;28;20051;-60
2022/01/23 00:33:09;;;;;;;3.53;1.20;;;21.50;44.80;;;;;;5068026;28;20138;-61
2022/01/23 00:35:37;;;;;;;1.95;1.15;;;21.50;44.80;;;;;;5068710;28;20066;-59
2022/01/23 00:38:04;;;;;;;2.58;1.52;;;21.50;44.80;;;;;;5069635;28;20060;-60
2022/01/23 00:40:32;;;;;;;3.20;1.10;;;21.50;44.80;;;;;;5065262;28;31544;-59
2022/01/23 00:43:00;;;;;;;1.00;0.90;;;21.50;44.80;;;;;;5070591;28;20065;-60
2022/01/23 00:45:34;;;;;;;3.25;1.15;;;21.50;44.80;;;;;;5067016;28;20048;-60
2022/01/23 00:48:06;;;;;;;2.00;1.10;;;21.40;44.80;;;;;;5066395;28;20064;-59
2022/01/23 00:50:42;;;;;;;3.83;1.23;;;21.40;44.80;;;;;;5068141;28;20431;-60
2022/01/23 00:53:10;;;;;;;1.65;1.08;;;21.40;44.80;;;;;;5071836;28;20051;-60
2022/01/23 00:55:41;;;;;;;2.13;1.00;;;21.40;44.80;;;;;;5080339;28;23980;-61
2022/01/23 00:58:08;;;;;;;2.45;1.30;;;21.30;44.80;;;;;;5069956;28;20028;-61
2022/01/23 01:00:33;;;;;;;1.20;1.10;;;21.30;44.80;;;;;;5067230;28;20508;-60
2022/01/23 01:02:59;;;;;;;5.90;1.45;;;21.30;44.90;;;;;;5069346;28;20036;-60
2022/01/23 01:05:29;;;;;;;5.05;1.30;;;21.30;44.80;;;;;;5066805;28;20127;-61
2022/01/23 01:07:56;;;;;;;2.47;1.42;;;21.30;44.80;;;;;;5069198;28;33938;-60
2022/01/23 01:10:28;;;;;;;2.60;1.40;;;21.30;44.80;;;;;;5063905;28;20089;-59
2022/01/23 01:12:58;;;;;;;2.85;1.35;;;21.20;44.80;;;;;;5071225;28;20052;-60
2022/01/23 01:15:32;;;;;;;2.15;1.17;;;21.20;44.90;;;;;;5067943;28;20071;-60
2022/01/23 01:31:48;;;;;;;2.63;1.00;;;21.10;44.90;;;;;;5070408;28;20083;-60
2022/01/23 01:34:19;;;;;;;3.10;1.30;;;21.10;44.90;;;;;;5064458;28;20039;-61
2022/01/23 01:36:50;;;;;;;2.38;1.15;;;21.00;44.90;;;;;;5069252;28;43575;-60
2022/01/23 01:39:22;;;;;;;3.40;1.35;;;21.00;44.90;;;;;;5066717;28;20049;-60
2022/01/23 01:41:49;;;;;;;2.65;1.35;;;21.00;44.90;;;;;;5068138;28;20040;-60
2022/01/23 01:44:15;;;;;;;2.72;1.45;;;21.00;44.90;;;;;;5068230;28;20038;-60
2022/01/23 01:46:41;;;;;;;2.83;1.30;;;21.00;44.90;;;;;;5070033;28;20879;-60
2022/01/23 01:49:07;;;;;;;2.17;1.55;;;21.00;44.90;;;;;;5067083;28;20052;-61
2022/01/23 01:51:34;;;;;;;2.58;1.60;;;20.90;44.90;;;;;;5067936;28;41005;-60
2022/01/23 01:54:20;;;;;;;3.25;1.40;;;20.90;44.90;;;;;;5068032;28;20040;-60
2022/01/23 01:57:04;;;;;;;2.40;1.20;;;20.90;44.90;;;;;;5065920;28;20041;-60
2022/01/23 02:00:10;;;;;;;2.42;1.50;;;20.90;44.90;;;;;;5056701;28;20048;-60
2022/01/23 02:08:22;;;;;;;2.72;1.70;;;20.90;45.00;;;;;;5071424;28;21820;-61
2022/01/23 02:10:48;;;;;;;3.55;1.40;;;20.80;45.00;;;;;;5070740;28;20040;-60
2022/01/23 02:13:18;;;;;;;1.92;1.52;;;20.80;44.90;;;;;;5069350;28;20154;-60
2022/01/23 02:22:28;;;;;;;3.50;1.83;;;20.80;45.00;;;;;;5069353;28;31463;-61
2022/01/23 02:24:21;;;;;;;1.40;1.30;;;20.80;45.00;;;;;;5075273;28;20055;-61
2022/01/23 02:56:51;;;;;;;2.13;1.50;;;20.60;46.10;;;;;;5068970;28;20407;-60
2022/01/23 02:59:30;;;;;;;2.58;1.38;;;20.60;46.20;;;;;;5073682;28;20032;-60
2022/01/23 03:02:10;;;;;;;2.53;1.60;;;20.60;46.20;;;;;;5062860;28;41380;-59
2022/01/23 03:04:40;;;;;;;2.17;1.42;;;20.60;46.30;;;;;;5071195;28;20144;-60
2022/01/23 03:07:31;;;;;;;2.70;1.77;;;20.60;46.30;;;;;;5069027;28;20076;-60
2022/01/23 03:10:03;;;;;;;2.22;1.48;;;20.60;46.30;;;;;;5072068;28;20048;-59
2022/01/23 03:13:23;;;;;;;2.33;1.50;;;20.60;46.30;;;;;;5069736;28;20056;-60
2022/01/23 03:15:24;;;;;;;2.08;1.30;;;20.50;46.30;;;;;;5065574;28;43245;-60
2022/01/23 03:29:00;;;;;;;2.80;1.38;;;20.50;47.00;;;;;;5067000;28;29110;-61
2022/01/23 03:31:29;;;;;;;6.32;1.42;;;20.50;46.30;;;;;;5070012;28;20082;-60
2022/01/23 03:33:56;;;;;;;2.75;1.27;;;20.50;46.30;;;;;;5068233;28;20669;-60
2022/01/23 03:36:21;;;;;;;5.00;1.45;;;20.50;46.30;;;;;;5070626;28;20088;-61
2022/01/23 03:38:47;;;;;;;1.85;1.55;;;20.40;46.20;;;;;;5068059;28;20046;-61
2022/01/23 03:41:13;;;;;;;2.53;1.55;;;20.40;46.20;;;;;;5071150;28;20403;-59
2022/01/23 03:43:40;;;;;;;2.35;1.30;;;20.40;46.20;;;;;;5064072;28;31468;-60
2022/01/23 03:46:23;;;;;;;3.42;1.27;;;20.40;46.20;;;;;;5070862;28;20127;-61
2022/01/23 03:49:35;;;;;;;2.03;1.45;;;20.40;46.20;;;;;;5070478;28;20506;-60
2022/01/23 03:51:36;;;;;;;3.60;1.33;;;20.40;46.20;;;;;;5059675;28;20056;-61
2022/01/23 03:54:02;;;;;;;3.47;1.40;;;20.40;46.30;;;;;;5073497;28;20044;-60
2022/01/23 03:56:30;;;;;;;3.58;1.30;;;20.40;46.20;;;;;;5067261;28;33755;-60
2022/01/23 03:58:57;;;;;;;4.13;1.40;;;20.40;46.30;;;;;;5069369;28;20059;-59
2022/01/23 04:01:23;;;;;;;4.03;1.52;;;20.40;46.20;;;;;;5068170;28;20032;-61
2022/01/23 04:03:50;;;;;;;5.18;1.45;;;20.40;46.20;;;;;;5073369;28;20040;-59
2022/01/23 04:06:16;;;;;;;3.47;1.48;;;20.30;46.20;;;;;;5068265;28;20044;-60
2022/01/23 04:08:42;;;;;;;3.53;1.20;;;20.30;46.10;;;;;;5072124;28;20125;-60
2022/01/23 04:11:07;;;;;;;3.55;1.33;;;20.30;46.10;;;;;;5066010;28;39076;-59
2022/01/23 04:13:50;;;;;;;5.28;1.55;;;20.30;46.10;;;;;;5070527;28;20048;-60
2022/01/23 04:19:16;;;;;;;4.22;1.35;;;20.30;46.10;;;;;;5070731;28;20473;-59
2022/01/23 04:35:31;;;;;;;4.65;1.35;;;20.20;46.10;;;;;;5066581;28;20048;-60
2022/01/23 04:45:18;;;;;;;2.03;1.20;;;20.20;46.10;;;;;;5067783;28;31414;-60
2022/01/23 04:47:17;;;;;;;3.22;1.20;;;20.20;46.10;;;;;;5068702;28;20109;-60
2022/01/23 04:59:52;;;;;;;3.78;1.20;;;20.10;46.00;;;;;;5071414;28;20110;-59
2022/01/23 05:04:45;;;;;;;3.78;1.27;;;20.10;46.00;;;;;;5068314;28;20055;-60
2022/01/23 05:07:13;;;;;;;2.30;1.20;;;20.10;46.00;;;;;;5065721;28;43558;-60
2022/01/23 05:09:39;;;;;;;3.10;1.05;;;20.10;46.00;;;;;;5069116;28;20056;-60
2022/01/23 05:12:10;;;;;;;1.63;1.48;;;20.10;46.00;;;;;;5067614;28;20079;-60
2022/01/23 05:14:42;;;;;;;1.40;1.13;;;20.10;46.00;;;;;;5066317;28;20051;-61
2022/01/23 05:17:11;;;;;;;1.70;1.40;;;20.10;46.00;;;;;;5069984;28;20068;-59
2022/01/23 05:19:38;;;;;;;2.28;1.02;;;20.00;45.90;;;;;;5064857;28;20052;-60
2022/01/23 05:24:41;;;;;;;1.88;1.00;;;20.00;45.90;;;;;;5070607;28;20036;-59
2022/01/23 05:27:09;;;;;;;1.60;1.20;;;20.00;45.90;;;;;;5070434;28;20149;-60
2022/01/23 05:29:36;;;;;;;2.85;1.42;;;20.00;45.90;;;;;;5070914;28;20036;-60
2022/01/23 05:32:04;;;;;;;1.10;1.00;;;20.00;45.90;;;;;;5066554;28;20048;-60
2022/01/23 05:34:29;;;;;;;1.67;1.10;;;20.00;45.90;;;;;;5065800;28;20681;-60
2022/01/23 05:36:55;;;;;;;3.08;1.17;;;20.00;45.90;;;;;;5060558;28;45992;-61
2022/01/23 05:39:24;;;;;;;1.70;1.00;;;20.00;45.90;;;;;;5066938;28;20676;-60
2022/01/23 05:41:54;;;;;;;1.13;0.85;;;20.00;45.80;;;;;;5070869;28;20044;-60
2022/01/23 05:44:20;;;;;;;1.00;0.90;;;20.00;45.90;;;;;;5067521;28;20043;-60
2022/01/23 05:46:46;;;;;;;1.48;1.00;;;20.00;45.90;;;;;;5070323;28;20046;-60
2022/01/23 05:49:12;;;;;;;2.35;0.93;;;20.00;45.90;;;;;;5069660;28;20495;-60
2022/01/23 05:51:37;;;;;;;1.23;0.90;;;20.00;45.80;;;;;;5075855;28;20039;-60
2022/01/23 05:54:03;;;;;;;2.00;1.10;;;20.00;45.90;;;;;;5070861;28;20036;-61
2022/01/23 05:56:29;;;;;;;1.80;1.10;;;20.00;45.80;;;;;;5074055;28;20036;-59
2022/01/23 05:58:55;;;;;;;1.98;1.08;;;20.00;45.80;;;;;;5074115;28;20458;-60
2022/01/23 06:01:21;;;;;;;0.88;0.77;;;20.00;45.80;;;;;;5074447;28;20134;-60
2022/01/23 06:03:46;;;;;;;1.13;0.70;;;20.00;45.90;;;;;;5069184;28;33679;-59
2022/01/23 06:06:12;;;;;;;1.13;0.88;;;20.00;45.90;;;;;;5074129;28;20036;-61
2022/01/23 06:08:38;;;;;;;1.35;0.80;;;20.00;45.90;;;;;;5073512;28;20090;-60
2022/01/23 06:11:04;;;;;;;1.45;0.88;;;20.00;45.90;;;;;;5069714;28;20052;-59
2022/01/23 06:13:31;;;;;;;1.65;1.00;;;20.00;45.90;;;;;;5071174;28;20108;-59
2022/01/23 06:15:57;;;;;;;0.98;0.73;;;20.00;45.90;;;;;;5071553;28;20036;-61
2022/01/23 06:18:23;;;;;;;2.65;1.08;;;20.00;45.90;;;;;;5052860;28;20102;-61
2022/01/23 06:20:48;;;;;;;0.57;0.57;;;20.00;45.90;;;;;;5072863;28;20102;-60
2022/01/23 06:23:14;;;;;;;1.77;0.80;;;20.00;45.90;;;;;;5072982;28;20032;-59
2022/01/23 06:25:44;;;;;;;1.05;0.80;;;20.00;45.90;;;;;;5073410;28;20132;-59
2022/01/23 06:28:10;;;;;;;0.77;0.60;;;20.00;45.80;;;;;;5071198;28;20043;-60
2022/01/23 06:30:38;;;;;;;1.08;0.70;;;20.00;45.80;;;;;;5070096;28;20032;-59
2022/01/23 06:33:05;;;;;;;0.93;0.60;;;20.00;45.80;;;;;;5066560;28;39005;-61
2022/01/23 06:35:31;;;;;;;0.93;0.60;;;20.00;45.90;;;;;;5073401;28;20123;-60
2022/01/23 06:37:57;;;;;;;1.40;0.55;;;20.00;45.80;;;;;;5071126;28;20439;-60
2022/01/23 06:40:23;;;;;;;1.67;0.60;;;20.10;46.00;;;;;;5073572;28;20040;-59
2022/01/23 06:42:48;;;;;;;1.35;0.50;;;20.10;46.00;;;;;;5072516;28;20090;-60
2022/01/23 06:45:14;;;;;;;1.30;0.80;;;20.10;46.00;;;;;;5066578;28;43458;-60
2022/01/23 06:47:39;;;;;;;1.23;0.70;;;20.10;46.00;;;;;;5069092;28;20454;-59
2022/01/23 06:50:06;;;;;;;0.57;0.55;;;20.10;46.10;;;;;;5068057;28;20488;-60
2022/01/23 06:52:31;;;;;;;1.70;0.70;;;20.10;46.10;;;;;;5071685;28;20044;-60
2022/01/23 06:54:57;;;;;;;0.95;0.82;;;20.10;46.10;;;;;;5067126;28;20594;-60
2022/01/23 06:57:22;;;;;;;1.13;0.70;;;20.10;46.20;;;;;;5072489;28;20044;-60
2022/01/23 06:59:48;;;;;;;1.67;0.93;;;20.10;46.20;;;;;;5066681;28;43706;-60
2022/01/23 07:02:13;;;;;;;1.67;0.50;;;20.10;46.20;;;;;;5068219;28;20044;-60
2022/01/23 07:04:39;;;;;;;0.60;0.60;;;20.20;46.30;;;;;;5069789;28;20036;-60
2022/01/23 07:07:04;;;;;;;1.70;0.60;;;20.20;46.30;;;;;;5067903;28;20037;-60
2022/01/23 07:09:30;;;;;;;2.17;0.75;;;20.20;46.30;;;;;;5072543;28;20098;-60
2022/01/23 07:11:56;;;;;;;0.70;0.68;;;20.20;46.30;;;;;;5071255;28;20651;-59
2022/01/23 07:14:21;;;;;;;1.65;0.80;;;20.20;46.30;;;;;;5067790;28;43595;-60
2022/01/23 07:16:47;;;;;;;1.63;0.80;;;20.20;46.30;;;;;;5068518;28;20040;-60
2022/01/23 07:19:13;;;;;;;2.58;0.80;;;20.20;46.20;;;;;;5068296;28;20036;-60
2022/01/23 07:21:38;;;;;;;1.45;0.75;;;20.20;46.20;;;;;;5070969;28;20090;-60
2022/01/23 07:24:04;;;;;;;0.82;0.63;;;20.20;46.20;;;;;;5069238;28;20037;-60
2022/01/23 07:26:31;;;;;;;0.80;0.75;;;20.20;46.20;;;;;;5073006;28;20144;-60
2022/01/23 07:28:59;;;;;;;1.33;0.70;;;20.20;46.20;;;;;;5068057;28;46342;-59
2022/01/23 07:34:02;;;;;;;1.10;0.70;;;20.20;46.30;;;;;;5067546;28;20041;-61
2022/01/23 07:36:28;;;;;;;2.38;1.00;;;20.30;46.30;;;;;;5069461;28;20040;-60
2022/01/23 07:38:54;;;;;;;1.55;0.60;;;20.30;46.30;;;;;;5070462;28;20044;-60
2022/01/23 07:41:20;;;;;;;0.80;0.70;;;20.30;46.30;;;;;;5066723;28;39174;-60
2022/01/23 07:43:46;;;;;;;1.00;0.80;;;20.30;46.20;;;;;;5071316;28;20036;-60
2022/01/23 07:46:11;;;;;;;2.97;1.10;;;20.30;46.20;;;;;;5066101;28;20051;-60
2022/01/23 07:48:37;;;;;;;1.08;0.80;;;20.30;46.30;;;;;;5068433;28;21385;-61
2022/01/23 07:51:02;;;;;;;4.85;0.88;;;20.30;46.40;;;;;;5064282;28;20093;-61
2022/01/23 07:53:28;;;;;;;3.13;0.90;;;20.30;46.40;;;;;;5067582;28;20930;-60
2022/01/23 07:55:54;;;;;;;2.17;1.00;;;20.40;46.40;;;;;;5065242;28;36263;-61
2022/01/23 07:58:19;;;;;;;2.92;1.40;;;20.40;46.60;;;;;;5050237;28;20042;-58
2022/01/23 08:00:47;;;;;;;2.53;0.80;;;20.40;46.80;;;;;;5067975;28;20499;-59
2022/01/23 08:03:13;;;;;;;5.05;1.10;;;20.40;46.90;;;;;;5069662;28;20036;-59
2022/01/23 08:05:39;;;;;;;2.35;0.70;;;20.40;46.80;;;;;;5070813;28;20492;-60
2022/01/23 08:08:05;;;;;;;2.78;0.93;;;20.40;46.70;;;;;;5073031;28;20028;-60
2022/01/23 08:10:31;;;;;;;2.60;1.10;;;20.40;46.80;;;;;;5068492;28;45918;-58
2022/01/23 08:12:56;;;;;;;3.78;1.02;;;20.40;46.70;;;;;;5068956;28;20047;-59
2022/01/23 08:15:22;;;;;;;2.97;1.25;;;20.50;46.80;;;;;;5066968;28;20473;-59
2022/01/23 08:17:48;;;;;;;7.20;1.42;;;20.50;46.70;;;;;;5068146;28;20583;-60
2022/01/23 08:20:13;;;;;;;7.47;1.40;;;20.50;46.80;;;;;;5061995;28;20706;-59
2022/01/23 08:22:39;;;;;;;6.68;0.73;;;20.50;46.80;;;;;;5066190;28;20134;-59
2022/01/23 08:25:05;;;;;;;2.97;1.13;;;20.50;47.00;;;;;;5064723;28;26973;-60
2022/01/23 08:27:31;;;;;;;4.38;1.17;;;20.50;47.10;;;;;;5072812;28;20089;-59
2022/01/23 08:29:58;;;;;;;2.40;1.25;;;20.50;47.20;;;;;;5067972;28;20035;-59
2022/01/23 08:32:24;;;;;;;1.65;0.77;;;20.50;47.40;;;;;;5070690;28;20047;-60
2022/01/23 08:34:50;;;;;;;3.13;1.17;;;20.50;47.40;;;;;;5068954;28;20044;-60
2022/01/23 08:37:16;;;;;;;2.15;1.08;;;20.60;47.60;;;;;;5068240;28;20032;-59
2022/01/23 08:39:41;;;;;;;2.78;1.00;;;20.60;47.70;;;;;;5072759;28;20075;-60
2022/01/23 08:42:11;;;;;;;1.42;0.98;;;20.60;47.70;;;;;;5065606;28;20877;-60
2022/01/23 08:44:37;;;;;;;2.25;1.13;;;20.60;47.80;;;;;;5070774;28;20645;-60
2022/01/23 08:47:04;;;;;;;2.22;1.20;;;20.50;47.80;;;;;;5066958;28;20035;-60
2022/01/23 08:49:30;;;;;;;2.22;1.00;;;20.60;47.90;;;;;;5066845;28;20037;-59
2022/01/23 08:51:57;;;;;;;1.73;1.20;;;20.60;47.90;;;;;;5061463;28;41049;-60
2022/01/23 08:54:25;;;;;;;3.05;1.02;;;20.60;47.90;;;;;;5068438;28;20086;-58
2022/01/23 08:56:51;;;;;;;1.35;0.80;;;20.60;48.00;;;;;;5068680;28;20067;-58
2022/01/23 08:59:16;;;;;;;6.05;1.15;;;20.60;48.10;;;;;;5062294;28;20484;-61
2022/01/23 09:01:42;;;;;;;3.15;1.25;;;20.70;48.10;;;;;;5064841;28;20458;-59
2022/01/23 09:04:09;;;;;;;4.60;0.82;;;20.60;48.00;;;;;;5061469;28;20676;-59
2022/01/23 09:06:35;;;;;;;3.13;1.05;;;20.70;48.10;;;;;;5063832;28;20036;-58
2022/01/23 09:09:03;;;;;;;1.27;1.10;;;20.70;48.00;;;;;;5064883;28;20558;-60
2022/01/23 09:14:06;;;;;;;3.92;1.00;;;20.70;48.00;;;;;;5066872;28;20123;-60
2022/01/23 09:16:41;;;;;;;3.05;1.42;;;20.80;48.70;;;;;;5068302;28;20040;-60
2022/01/23 09:19:08;;;;;;;3.33;1.30;;;20.80;48.10;;;;;;5064905;28;20440;-60
2022/01/23 09:21:34;;;;;;;3.15;1.13;;;20.80;48.20;;;;;;5063419;28;42751;-59
2022/01/23 09:24:00;;;;;;;2.72;1.38;;;20.80;48.20;;;;;;5069176;28;20036;-61
2022/01/23 09:26:27;;;;;;;4.57;1.38;;;20.80;48.30;;;;;;5068862;28;20036;-60
2022/01/23 09:28:55;;;;;;;3.55;0.90;;;20.90;48.50;;;;;;5074493;28;20041;-60
2022/01/23 09:31:48;;;;;;;3.00;1.10;;;20.80;48.50;;;;;;5072946;28;20048;-60
2022/01/23 09:34:15;;;;;;;2.88;1.33;;;20.90;48.60;;;;;;5068906;28;40680;-60
2022/01/23 09:36:40;;;;;;;4.55;1.35;;;20.90;48.80;;;;;;5074542;28;20399;-60
2022/01/23 09:39:06;;;;;;;5.35;1.35;;;20.90;48.90;;;;;;5072206;28;20044;-59
2022/01/23 09:41:34;;;;;;;3.00;1.10;;;20.90;48.90;;;;;;5068895;28;20045;-60
2022/01/23 09:44:00;;;;;;;3.03;1.48;;;20.90;49.10;;;;;;5074679;28;20504;-60
2022/01/23 09:46:26;;;;;;;6.20;1.52;;;20.90;49.20;;;;;;5074023;28;20037;-60
2022/01/23 09:48:53;;;;;;;3.97;1.52;;;20.90;49.30;;;;;;5068125;28;33018;-59
2022/01/23 09:51:21;;;;;;;6.95;1.20;;;21.00;49.50;;;;;;5064151;28;20086;-60
2022/01/23 09:53:47;;;;;;;2.78;1.23;;;21.00;49.50;;;;;;5070384;28;20068;-60
2022/01/23 09:56:15;;;;;;;3.47;1.17;;;21.00;49.60;;;;;;5069727;28;20086;-59
2022/01/23 09:58:41;;;;;;;3.88;1.48;;;21.00;49.70;;;;;;5071508;28;20470;-60
2022/01/23 10:01:06;;;;;;;1.60;1.30;;;21.00;49.90;;;;;;5073525;28;20050;-59
2022/01/23 10:03:32;;;;;;;4.20;1.30;;;21.10;50.10;;;;;;5065620;28;35389;-59
2022/01/23 10:05:58;;;;;;;3.92;1.40;;;21.10;50.00;;;;;;5073014;28;20105;-59
2022/01/23 10:08:27;;;;;;;11.85;2.00;;;21.10;49.90;;;;;;5067893;28;20114;-61
2022/01/23 10:10:55;;;;;;;6.30;1.40;;;21.10;49.90;;;;;;5059289;28;20057;-58
2022/01/23 10:13:23;;;;;;;3.65;1.30;;;21.10;49.60;;;;;;5066079;28;20044;-59
2022/01/23 10:15:49;;;;;;;3.40;1.30;;;21.10;49.50;;;;;;5073867;28;38365;-59
2022/01/23 10:18:16;;;;;;;2.13;1.05;;;21.10;49.20;;;;;;5072743;28;20152;-59
2022/01/23 10:20:41;;;;;;;2.92;1.58;;;21.10;49.20;;;;;;5072328;28;20045;-59
2022/01/23 10:23:09;;;;;;;3.42;1.40;;;21.10;49.00;;;;;;5074103;28;20037;-60
2022/01/23 10:25:41;;;;;;;3.05;1.10;;;21.10;49.00;;;;;;5070958;28;20052;-60
2022/01/23 10:28:17;;;;;;;3.83;1.23;;;21.10;48.90;;;;;;5075927;28;20032;-59
2022/01/23 10:30:50;;;;;;;3.40;1.20;;;21.10;48.80;;;;;;5069670;28;30247;-59
2022/01/23 10:33:22;;;;;;;3.85;1.17;;;21.10;48.80;;;;;;5073425;28;20060;-60
2022/01/23 10:36:15;;;;;;;1.63;1.15;;;21.10;48.70;;;;;;5074289;28;20075;-59
2022/01/23 10:38:44;;;;;;;1.30;1.20;;;21.10;48.60;;;;;;5071248;28;20044;-59
2022/01/23 10:41:46;;;;;;;2.05;1.30;;;21.00;48.50;;;;;;5073725;28;20156;-59
2022/01/23 10:50:03;;;;;;;3.03;1.38;;;21.00;48.30;;;;;;5074980;28;20498;-58
2022/01/23 10:52:34;;;;;;;2.15;1.40;;;21.10;48.30;;;;;;5068460;28;20040;-59
2022/01/23 10:55:25;;;;;;;1.60;0.85;;;21.00;48.20;;;;;;5074597;28;20036;-59
2022/01/23 10:57:54;;;;;;;2.85;1.42;;;21.00;48.10;;;;;;5066010;28;20056;-60
2022/01/23 11:00:21;;;;;;;1.67;0.90;;;21.00;48.00;;;;;;5069541;28;43573;-59
2022/01/23 11:02:47;;;;;;;1.35;1.02;;;21.00;47.90;;;;;;5073620;28;20052;-59
2022/01/23 11:05:15;;;;;;;2.63;1.08;;;21.00;47.90;;;;;;5072387;28;20044;-59
2022/01/23 11:07:43;;;;;;;2.38;1.13;;;21.00;47.80;;;;;;5072879;28;20078;-61
2022/01/23 11:10:14;;;;;;;2.72;1.15;;;21.10;47.80;;;;;;5071998;28;20048;-59
2022/01/23 11:17:21;;;;;;;6.95;1.20;;;21.00;48.30;;;;;;5071963;28;43164;-60
2022/01/23 11:18:34;;;;;;;1.20;0.95;;;21.00;47.70;;;;;;5071232;28;20072;-59
2022/01/23 11:21:13;;;;;;;1.25;1.10;;;21.00;47.50;;;;;;5073664;28;20102;-61
2022/01/23 11:23:39;;;;;;;1.90;1.10;;;21.00;47.50;;;;;;5075401;28;20055;-60
2022/01/23 11:26:04;;;;;;;1.35;0.82;;;21.00;47.40;;;;;;5072099;28;20493;-59
2022/01/23 11:28:48;;;;;;;1.77;0.70;;;21.00;47.40;;;;;;5068949;28;37474;-60
2022/01/23 11:31:22;;;;;;;1.40;0.75;;;21.00;47.30;;;;;;5071503;28;20044;-59
2022/01/23 11:33:50;;;;;;;1.25;0.90;;;21.00;47.30;;;;;;5072813;28;20176;-59
2022/01/23 11:36:17;;;;;;;1.13;0.80;;;21.00;47.30;;;;;;5069949;28;20176;-59
2022/01/23 11:38:45;;;;;;;1.33;0.80;;;21.00;47.20;;;;;;5071846;28;20056;-59
2022/01/23 11:55:04;;;;;;;2.10;0.70;;;21.00;46.90;;;;;;5071355;28;40642;-59
2022/01/23 11:57:41;;;;;;;2.42;0.60;;;21.00;46.80;;;;;;5070909;28;20044;-58
2022/01/23 12:00:10;;;;;;;0.60;0.60;;;21.00;46.60;;;;;;5072900;28;20024;-59
2022/01/23 12:02:38;;;;;;;1.45;0.73;;;21.00;46.70;;;;;;5073351;28;20054;-59
2022/01/23 12:05:10;;;;;;;0.70;0.68;;;21.00;46.60;;;;;;5070712;28;20044;-59
2022/01/23 12:07:39;;;;;;;1.85;0.60;;;21.00;46.50;;;;;;5040134;28;20052;-58
2022/01/23 12:10:17;;;;;;;0.95;0.40;;;21.00;46.50;;;;;;5063289;28;28189;-59
2022/01/23 12:12:49;;;;;;;0.50;0.50;;;21.00;46.40;;;;;;5073214;28;20047;-59
2022/01/23 12:18:14;;;;;;;0.65;0.63;;;21.00;46.40;;;;;;5070200;28;20051;-59
2022/01/23 12:20:40;;;;;;;0.93;0.60;;;20.90;46.30;;;;;;5073497;28;20035;-59
2022/01/23 12:23:06;;;;;;;0.50;0.50;;;20.90;46.30;;;;;;5067509;28;38052;-59
2022/01/23 12:25:47;;;;;;;0.65;0.45;;;20.90;46.20;;;;;;5071141;28;20081;-59
2022/01/23 12:28:27;;;;;;;0.85;0.47;;;21.00;46.20;;;;;;5071714;28;20042;-59
2022/01/23 12:30:56;;;;;;;0.77;0.70;;;20.90;46.10;;;;;;5071686;28;20052;-59
2022/01/23 12:33:28;;;;;;;1.05;0.50;;;20.90;46.10;;;;;;5072320;28;20162;-59
2022/01/23 12:36:25;;;;;;;0.70;0.55;;;20.90;46.10;;;;;;5069065;28;20059;-58
2022/01/23 12:38:57;;;;;;;1.65;0.60;;;20.90;46.10;;;;;;5067180;28;43252;-59
2022/01/23 12:41:33;;;;;;;0.75;0.70;;;20.90;46.00;;;;;;5070456;28;20105;-59
2022/01/23 12:44:01;;;;;;;0.85;0.63;;;20.90;45.90;;;;;;5069227;28;20063;-58
2022/01/23 12:46:29;;;;;;;0.68;0.68;;;20.90;45.90;;;;;;5074413;28;20414;-58
2022/01/23 12:48:56;;;;;;;0.80;0.70;;;20.90;45.90;;;;;;5069271;28;20113;-59
2022/01/23 12:51:21;;;;;;;0.63;0.50;;;20.90;45.90;;;;;;5069302;28;43221;-59
2022/01/23 12:53:47;;;;;;;0.80;0.50;;;20.90;45.80;;;;;;5072784;28;20044;-59
2022/01/23 12:56:41;;;;;;;1.15;0.50;;;20.90;45.80;;;;;;5072278;28;20044;-59
2022/01/23 12:59:11;;;;;;;1.33;0.60;;;20.90;45.80;;;;;;5072559;28;20044;-59
2022/01/23 13:01:41;;;;;;;1.98;0.70;;;20.80;45.70;;;;;;5069735;28;20040;-59
2022/01/23 13:04:08;;;;;;;0.40;0.40;;;20.80;45.70;;;;;;5073134;28;20078;-59
2022/01/23 13:06:42;;;;;;;0.60;0.60;;;20.90;45.70;;;;;;5066919;28;46044;-58
2022/01/23 13:09:39;;;;;;;0.63;0.63;;;20.80;45.60;;;;;;5069645;28;20491;-59
2022/01/23 13:12:17;;;;;;;0.63;0.60;;;20.80;45.50;;;;;;5074384;28;20032;-58
2022/01/23 13:15:18;;;;;;;0.60;0.60;;;20.80;45.60;;;;;;5066543;28;20464;-59
2022/01/23 13:18:13;;;;;;;;;;;20.80;45.50;;;;;;5072635;28;20041;-59
2022/01/23 13:27:30;;;;;;;0.70;0.70;;;20.80;45.60;;;;;;5067239;28;20044;-60
2022/01/23 13:30:12;;;;;;;0.70;0.70;;;20.80;45.60;;;;;;5066869;28;20071;-58
2022/01/23 13:32:43;;;;;;;1.75;0.90;;;20.80;45.40;;;;;;5067982;28;20471;-59
2022/01/23 13:35:13;;;;;;;0.70;0.70;;;20.80;45.50;;;;;;5069336;28;20040;-59
2022/01/23 13:37:45;;;;;;;1.33;0.90;;;20.80;45.50;;;;;;5070634;28;20043;-59
2022/01/23 13:40:25;;;;;;;0.90;0.90;;;20.80;45.50;;;;;;5065371;28;20037;-59
2022/01/23 13:51:36;;;;;;;1.30;0.90;;;20.70;45.90;;;;;;5069218;28;20403;-59
2022/01/23 14:02:36;;;;;;;3.30;1.10;;;20.70;46.90;;;;;;5068801;28;20037;-59
2022/01/23 14:05:11;;;;;;;2.05;1.10;;;20.80;47.10;;;;;;5071312;28;20039;-58
2022/01/23 14:07:36;;;;;;;1.10;1.00;;;20.70;47.10;;;;;;5073254;28;20038;-59
2022/01/23 14:10:24;;;;;;;2.58;1.00;;;20.70;47.20;;;;;;5070405;28;20052;-60
2022/01/23 14:12:52;;;;;;;1.00;0.90;;;20.80;47.30;;;;;;5070827;28;21589;-58
2022/01/23 14:15:28;;;;;;;1.95;0.95;;;20.70;47.30;;;;;;5068111;28;43165;-59
2022/01/23 14:18:11;;;;;;;1.77;0.90;;;20.80;47.50;;;;;;5069126;28;20527;-59
2022/01/23 14:20:43;;;;;;;1.23;1.13;;;20.80;47.60;;;;;;5075238;28;20048;-59
2022/01/23 14:23:22;;;;;;;0.90;0.90;;;20.80;47.60;;;;;;5070617;28;20595;-59
2022/01/23 14:25:50;;;;;;;2.50;0.98;;;20.70;47.70;;;;;;5073332;28;20055;-59
2022/01/23 14:28:20;;;;;;;1.88;0.80;;;20.80;47.80;;;;;;5067405;28;20086;-59
2022/01/23 14:30:49;;;;;;;2.88;1.00;;;20.80;47.80;;;;;;5067742;28;38041;-59
2022/01/23 14:33:18;;;;;;;2.88;1.02;;;20.80;47.90;;;;;;5066130;28;20606;-59
2022/01/23 14:35:44;;;;;;;1.50;0.80;;;20.80;48.20;;;;;;5068988;28;20035;-59
2022/01/23 14:38:16;;;;;;;2.75;0.90;;;20.80;48.20;;;;;;5072345;28;20111;-59
2022/01/23 14:41:03;;;;;;;1.08;0.88;;;20.80;48.20;;;;;;5053871;28;20044;-60
2022/01/23 14:43:36;;;;;;;0.93;0.80;;;20.80;48.20;;;;;;5069663;28;43310;-59
2022/01/23 14:46:04;;;;;;;1.67;0.80;;;20.80;48.40;;;;;;5072000;28;20044;-59
2022/01/23 14:48:33;;;;;;;1.00;0.90;;;20.80;48.30;;;;;;5071157;28;20044;-60
2022/01/23 14:51:03;;;;;;;0.70;0.70;;;20.80;48.20;;;;;;5073753;28;21275;-58
2022/01/23 14:53:29;;;;;;;1.10;1.00;;;20.70;48.20;;;;;;5069235;28;20051;-57
2022/01/23 14:55:57;;;;;;;1.27;1.00;;;20.70;48.20;;;;;;5073332;28;20400;-58
2022/01/23 14:58:24;;;;;;;1.80;1.00;;;20.70;48.30;;;;;;5068777;28;40713;-60
2022/01/23 15:00:54;;;;;;;3.83;1.67;;;20.70;48.30;;;;;;5070637;28;20059;-58
2022/01/23 15:03:20;;;;;;;3.38;1.15;;;20.70;48.30;;;;;;5067497;28;20123;-59
2022/01/23 15:05:47;;;;;;;3.45;1.05;;;20.70;48.50;;;;;;5068166;28;20032;-59
2022/01/23 15:08:13;;;;;;;2.28;1.05;;;20.70;48.40;;;;;;5059545;28;20068;-59
2022/01/23 15:10:41;;;;;;;1.35;1.08;;;20.70;48.40;;;;;;5062694;28;20083;-60
2022/01/23 15:13:08;;;;;;;1.70;1.15;;;20.70;48.40;;;;;;5065912;28;38205;-58
2022/01/23 15:15:34;;;;;;;9.48;1.83;;;20.70;48.40;;;;;;5066703;28;20064;-59
2022/01/23 15:18:00;;;;;;;4.05;1.33;;;20.70;48.40;;;;;;5048797;28;20421;-59
2022/01/23 15:20:26;;;;;;;1.90;1.13;;;20.70;48.40;;;;;;5070582;28;20105;-60
2022/01/23 15:22:52;;;;;;;1.30;0.98;;;20.70;48.50;;;;;;5065938;28;20492;-59
2022/01/23 15:25:19;;;;;;;3.55;1.30;;;20.70;48.50;;;;;;5063969;28;41248;-58
2022/01/23 15:27:46;;;;;;;2.85;1.23;;;20.70;48.40;;;;;;5063518;28;20600;-59
2022/01/23 15:30:16;;;;;;;1.98;0.98;;;20.70;48.40;;;;;;5071866;28;20109;-59
2022/01/23 15:32:42;;;;;;;0.88;0.88;;;20.70;48.30;;;;;;5066435;28;20032;-58
2022/01/23 15:35:08;;;;;;;1.55;1.25;;;20.70;48.20;;;;;;5067851;28;20204;-57
2022/01/23 15:37:34;;;;;;;1.02;1.00;;;20.70;48.10;;;;;;5069736;28;20040;-58
2022/01/23 15:40:00;;;;;;;1.90;1.00;;;20.70;48.00;;;;;;5066504;28;38279;-59
2022/01/23 15:42:26;;;;;;;1.20;1.08;;;20.70;47.90;;;;;;5069175;28;20511;-58
2022/01/23 15:44:51;;;;;;;1.55;1.20;;;20.60;47.70;;;;;;5068646;28;20795;-59
2022/01/23 15:47:17;;;;;;;1.35;0.90;;;20.60;47.70;;;;;;5068454;28;21021;-58